createdAt,value
2023-01-20T00:00:48.239Z,11.45
2023-01-20T00:04:08.816Z,11.60
2023-01-20T00:07:25.022Z,11.07
2023-01-20T00:10:40.825Z,11.57
2023-01-20T00:14:14.690Z,10.77
2023-01-20T00:17:39.744Z,10.95
2023-01-20T00:20:59.895Z,9.48
2023-01-20T00:24:13.496Z,10.18
2023-01-20T00:27:36.819Z,11.40
2023-01-20T00:31:07.808Z,9.57
2023-01-20T00:34:28.606Z,10.60
2023-01-20T00:37:38.721Z,10.32
2023-01-20T00:40:42.770Z,10.25
2023-01-20T00:43:46.512Z,10.77
2023-01-20T00:47:02.874Z,12.52
2023-01-20T00:50:09.943Z,12.15
2023-01-20T00:53:16.121Z,12.10
2023-01-20T00:56:25.891Z,12.40
2023-01-20T00:59:28.893Z,13.00
2023-01-20T01:02:39.744Z,12.48
2023-01-20T01:05:49.355Z,12.45
2023-01-20T01:08:53.226Z,12.65
2023-01-20T01:12:08.793Z,13.13
2023-01-20T01:15:36.568Z,13.00
2023-01-20T01:19:05.190Z,12.40
2023-01-20T01:22:08.294Z,13.93
2023-01-20T01:25:14.725Z,13.40
2023-01-20T01:28:22.041Z,14.10
2023-01-20T01:31:35.893Z,13.90
2023-01-20T01:34:58.589Z,13.02
2023-01-20T01:38:18.689Z,13.60
2023-01-20T01:41:38.556Z,13.63
2023-01-20T01:45:14.152Z,13.20
2023-01-20T01:48:32.548Z,12.27
2023-01-20T01:51:51.754Z,12.02
2023-01-20T01:55:02.755Z,11.23
2023-01-20T01:58:15.178Z,12.27
2023-01-20T02:01:21.362Z,12.38
2023-01-20T02:04:38.730Z,11.60
2023-01-20T02:07:55.469Z,11.43
2023-01-20T02:11:22.539Z,11.63
2023-01-20T02:14:45.352Z,11.20
2023-01-20T02:18:19.613Z,11.32
2023-01-20T02:21:59.859Z,11.83
2023-01-20T02:25:21.215Z,11.50
2023-01-20T02:28:35.799Z,11.32
2023-01-20T02:32:00.831Z,12.07
2023-01-20T02:35:42.868Z,11.68
2023-01-20T02:39:26.885Z,12.00
2023-01-20T02:42:41.240Z,12.18
2023-01-20T02:46:01.085Z,11.93
2023-01-20T02:49:20.944Z,11.30
2023-01-20T02:52:39.650Z,10.68
2023-01-20T02:56:04.294Z,9.97
2023-01-20T02:59:35.085Z,9.68
2023-01-20T03:02:41.004Z,10.68
2023-01-20T03:05:55.216Z,9.70
2023-01-20T03:09:16.672Z,9.40
2023-01-20T03:12:46.030Z,10.57
2023-01-20T03:16:02.351Z,10.48
2023-01-20T03:19:20.395Z,10.13
2023-01-20T03:22:28.397Z,11.68
2023-01-20T03:25:33.011Z,10.43
2023-01-20T03:28:48.591Z,10.77
2023-01-20T03:32:12.372Z,11.52
2023-01-20T03:35:35.234Z,11.05
2023-01-20T03:38:51.609Z,11.02
2023-01-20T03:42:19.398Z,10.77
2023-01-20T03:45:37.288Z,10.47
2023-01-20T03:49:16.579Z,11.38
2023-01-20T03:52:48.053Z,11.02
2023-01-20T03:55:54.663Z,11.82
2023-01-20T03:59:08.504Z,11.63
2023-01-20T04:02:22.532Z,11.20
2023-01-20T04:05:27.301Z,11.38
2023-01-20T04:08:37.135Z,11.18
2023-01-20T04:11:53.997Z,12.90
2023-01-20T04:15:17.384Z,12.15
2023-01-20T04:18:34.970Z,11.90
2023-01-20T04:22:04.954Z,12.60
2023-01-20T04:25:23.095Z,11.73
2023-01-20T04:28:44.971Z,12.27
2023-01-20T04:32:09.250Z,12.00
2023-01-20T04:35:26.200Z,12.30
2023-01-20T04:38:49.059Z,11.98
2023-01-20T04:42:12.064Z,11.38
2023-01-20T04:45:36.075Z,12.82
2023-01-20T04:48:46.513Z,11.70
2023-01-20T04:52:09.149Z,12.50
2023-01-20T04:55:43.247Z,11.40
2023-01-20T04:59:06.168Z,11.68
2023-01-20T05:02:27.040Z,12.70
2023-01-20T05:05:49.980Z,12.48
2023-01-20T05:09:11.034Z,12.20
2023-01-20T05:12:14.063Z,12.65
2023-01-20T05:15:17.183Z,12.73
2023-01-20T05:18:26.406Z,12.85
2023-01-20T05:21:49.443Z,13.73
2023-01-20T05:25:03.601Z,12.03
2023-01-20T05:28:19.047Z,12.43
2023-01-20T05:31:30.078Z,12.48
2023-01-20T05:34:33.402Z,12.00
2023-01-20T05:37:52.875Z,12.73
2023-01-20T05:41:15.859Z,13.00
2023-01-20T05:44:29.272Z,12.93
2023-01-20T05:47:44.865Z,12.93
2023-01-20T05:50:58.425Z,11.35
2023-01-20T05:54:02.258Z,12.10
2023-01-20T05:57:19.448Z,11.57
2023-01-20T06:00:34.935Z,11.88
2023-01-20T06:03:50.800Z,11.45
2023-01-20T06:07:24.763Z,11.82
2023-01-20T06:10:50.696Z,11.05
2023-01-20T06:14:11.745Z,10.80
2023-01-20T06:17:21.721Z,11.20
2023-01-20T06:20:25.451Z,11.00
2023-01-20T06:23:36.079Z,11.43
2023-01-20T06:26:42.543Z,11.60
2023-01-20T06:29:56.182Z,12.07
2023-01-20T06:33:08.827Z,11.07
2023-01-20T06:36:17.767Z,12.38
2023-01-20T06:39:31.711Z,11.55
2023-01-20T06:42:41.771Z,12.00
2023-01-20T06:46:06.004Z,11.57
2023-01-20T06:49:44.402Z,10.85
2023-01-20T06:53:19.540Z,11.32
2023-01-20T06:56:27.309Z,11.30
2023-01-20T06:59:44.944Z,11.05
2023-01-20T07:03:05.969Z,14.23
2023-01-20T07:06:47.819Z,12.50
2023-01-20T07:10:13.201Z,12.00
2023-01-20T07:13:17.268Z,12.23
2023-01-20T07:16:35.098Z,10.70
2023-01-20T07:19:39.564Z,10.93
2023-01-20T07:22:42.868Z,11.52
2023-01-20T07:26:07.828Z,11.63
2023-01-20T07:29:31.764Z,11.90
2023-01-20T07:32:59.450Z,13.07
2023-01-20T07:36:13.854Z,10.93
2023-01-20T07:39:22.753Z,12.07
2023-01-20T07:42:39.595Z,12.13
2023-01-20T07:46:02.582Z,12.20
2023-01-20T07:49:15.699Z,12.05
2023-01-20T07:52:32.952Z,10.97
2023-01-20T07:56:20.252Z,11.38
2023-01-20T07:59:42.508Z,12.10
2023-01-20T08:03:38.805Z,11.52
2023-01-20T08:10:59.302Z,17.23
2023-01-20T08:14:04.545Z,39.85
2023-01-20T08:23:15.460Z,11.18
2023-01-20T08:27:20.493Z,10.15
2023-01-20T08:30:32.129Z,10.47
2023-01-20T08:34:03.833Z,11.02
2023-01-20T08:37:07.834Z,10.13
2023-01-20T08:40:15.288Z,10.10
2023-01-20T08:43:29.628Z,10.52
2023-01-20T08:47:28.147Z,10.80
2023-01-20T08:50:33.358Z,10.98
2023-01-20T08:54:24.598Z,12.88
2023-01-20T09:06:55.175Z,10.20
2023-01-20T09:10:55.574Z,10.55
2023-01-20T09:19:12.157Z,10.13
2023-01-20T09:22:27.642Z,9.95
2023-01-20T09:31:17.868Z,9.70
2023-01-20T09:35:05.749Z,10.20
2023-01-20T09:44:10.833Z,10.70
2023-01-20T09:48:16.773Z,13.40
2023-01-20T09:52:06.521Z,12.40
2023-01-20T09:55:27.356Z,10.90
2023-01-20T09:59:08.948Z,13.18
2023-01-20T10:03:07.041Z,10.90
2023-01-20T10:06:25.188Z,11.40
2023-01-20T10:09:55.207Z,10.30
2023-01-20T10:13:53.600Z,10.63
2023-01-20T10:18:06.123Z,16.13
2023-01-20T10:21:46.896Z,13.98
2023-01-20T10:26:18.000Z,10.17
2023-01-20T10:35:54.482Z,8.40
2023-01-20T10:39:36.502Z,9.75
2023-01-20T10:43:04.602Z,10.07
2023-01-20T10:46:35.252Z,8.73
2023-01-20T10:49:49.781Z,9.35
2023-01-20T10:53:51.120Z,9.27
2023-01-20T10:57:18.203Z,8.90
2023-01-20T11:01:42.296Z,9.60
2023-01-20T11:05:00.315Z,8.60
2023-01-20T11:08:32.396Z,9.38
2023-01-20T11:11:44.721Z,11.18
2023-01-20T11:14:59.935Z,10.43
2023-01-20T11:18:26.764Z,9.75
2023-01-20T11:21:52.570Z,9.27
2023-01-20T11:29:57.193Z,10.07
2023-01-20T11:33:24.809Z,9.80
2023-01-20T11:37:00.847Z,10.68
2023-01-20T11:40:28.579Z,10.17
2023-01-20T11:43:40.496Z,10.65
2023-01-20T11:46:52.554Z,35.03
2023-01-20T11:50:09.725Z,15.38
2023-01-20T11:53:35.163Z,14.77
2023-01-20T11:57:09.008Z,11.97
2023-01-20T12:01:15.940Z,9.88
2023-01-20T12:04:38.717Z,9.23
2023-01-20T12:07:49.004Z,10.98
2023-01-20T12:11:02.839Z,10.23
2023-01-20T12:14:29.973Z,10.13
2023-01-20T12:17:40.054Z,7.88
2023-01-20T12:21:08.128Z,9.65
2023-01-20T12:25:08.999Z,10.18
2023-01-20T12:28:49.157Z,9.95
2023-01-20T12:31:59.528Z,5.83
2023-01-20T12:35:06.799Z,5.20
2023-01-20T12:38:19.074Z,5.93
2023-01-20T12:41:48.407Z,6.13
2023-01-20T12:45:18.562Z,4.88
2023-01-20T12:48:49.087Z,4.30
2023-01-20T12:52:07.425Z,5.25
2023-01-20T12:55:41.252Z,5.47
2023-01-20T12:58:55.125Z,6.20
2023-01-20T13:02:24.597Z,11.43
2023-01-20T13:06:01.334Z,12.33
2023-01-20T13:09:32.645Z,11.68
2023-01-20T13:13:31.415Z,12.82
2023-01-20T13:17:09.825Z,12.85
2023-01-20T13:20:25.265Z,12.73
2023-01-20T13:23:36.055Z,13.27
2023-01-20T13:26:50.984Z,13.18
2023-01-20T13:30:07.030Z,14.00
2023-01-20T13:33:36.848Z,15.23
2023-01-20T13:37:06.085Z,12.65
2023-01-20T13:40:42.471Z,14.27
2023-01-20T13:43:55.444Z,15.35
2023-01-20T13:47:08.326Z,14.48
2023-01-20T13:50:36.738Z,14.73
2023-01-20T13:53:51.012Z,16.30
2023-01-20T13:57:28.180Z,15.47
2023-01-20T14:00:32.199Z,15.75
2023-01-20T14:03:52.781Z,17.30
2023-01-20T14:07:10.115Z,16.83
2023-01-20T14:10:26.671Z,19.00
2023-01-20T14:13:55.649Z,15.57
2023-01-20T14:17:21.110Z,18.65
2023-01-20T14:20:37.779Z,19.30
2023-01-20T14:23:55.493Z,20.45
2023-01-20T14:27:18.398Z,22.10
2023-01-20T14:30:27.536Z,17.73
2023-01-20T14:33:34.625Z,21.40
2023-01-20T14:36:37.642Z,21.83
2023-01-20T14:39:51.332Z,19.02
2023-01-20T14:43:00.014Z,19.63
2023-01-20T14:46:10.938Z,17.27
2023-01-20T14:49:19.356Z,17.67
2023-01-20T14:52:31.289Z,19.55
2023-01-20T14:55:56.176Z,18.85
2023-01-20T14:58:59.733Z,19.65
2023-01-20T15:02:14.739Z,20.70
2023-01-20T15:05:31.424Z,16.73
2023-01-20T15:08:41.058Z,16.88
2023-01-20T15:11:58.517Z,15.43
2023-01-20T15:15:27.434Z,17.48
2023-01-20T15:18:50.341Z,16.00
2023-01-20T15:22:21.010Z,15.95
2023-01-20T15:25:36.171Z,16.60
2023-01-20T15:28:57.487Z,17.15
2023-01-20T15:32:12.390Z,15.52
2023-01-20T15:35:37.674Z,17.23
2023-01-20T15:38:59.333Z,16.25
2023-01-20T15:42:25.532Z,16.35
2023-01-20T15:45:28.750Z,16.10
2023-01-20T15:48:32.169Z,16.60
2023-01-20T15:51:45.991Z,14.53
2023-01-20T15:54:55.789Z,15.10
2023-01-20T15:58:27.157Z,15.98
2023-01-20T16:01:47.979Z,15.82
2023-01-20T16:04:57.841Z,15.65
2023-01-20T16:08:34.942Z,16.33
2023-01-20T16:11:56.771Z,16.08
2023-01-20T16:15:14.885Z,16.45
2023-01-20T16:18:23.780Z,16.08
2023-01-20T16:21:32.597Z,16.08
2023-01-20T16:24:38.750Z,16.90
2023-01-20T16:27:45.642Z,16.55
2023-01-20T16:31:06.234Z,17.00
2023-01-20T16:34:26.154Z,16.80
2023-01-20T16:37:33.279Z,16.85
2023-01-20T16:40:44.503Z,17.50
2023-01-20T16:43:59.086Z,14.73
2023-01-20T16:47:19.958Z,16.20
2023-01-20T16:50:36.339Z,18.33
2023-01-20T16:53:59.127Z,18.05
2023-01-20T16:57:24.945Z,18.13
2023-01-20T17:00:28.002Z,17.45
2023-01-20T17:03:31.993Z,20.10
2023-01-20T17:06:43.445Z,15.05
2023-01-20T17:09:49.606Z,17.90
2023-01-20T17:12:54.350Z,18.57
2023-01-20T17:15:59.289Z,17.58
2023-01-20T17:19:21.250Z,16.48
2023-01-20T17:22:45.299Z,17.38
2023-01-20T17:26:07.060Z,17.85
2023-01-20T17:29:27.943Z,13.37
2023-01-20T17:32:51.055Z,19.08
2023-01-20T17:36:04.014Z,18.27
2023-01-20T17:39:20.009Z,17.02
2023-01-20T17:42:57.058Z,17.38
2023-01-20T17:46:23.205Z,17.27
2023-01-20T17:49:26.118Z,18.48
2023-01-20T17:52:29.398Z,16.75
2023-01-20T17:55:39.756Z,17.02
2023-01-20T17:58:44.638Z,16.27
2023-01-20T18:01:52.487Z,15.60
2023-01-20T18:04:55.437Z,15.70
2023-01-20T18:08:05.741Z,15.85
2023-01-20T18:11:21.765Z,13.50
2023-01-20T18:14:29.063Z,16.90
2023-01-20T18:17:34.518Z,14.93
2023-01-20T18:20:57.881Z,14.80
2023-01-20T18:24:19.450Z,13.05
2023-01-20T18:27:29.847Z,14.35
2023-01-20T18:30:39.622Z,13.57
2023-01-20T18:33:52.172Z,13.73
2023-01-20T18:37:02.883Z,14.25
2023-01-20T18:40:11.160Z,14.88
2023-01-20T18:43:24.042Z,13.02
2023-01-20T18:46:28.681Z,13.48
2023-01-20T18:49:42.745Z,9.07
2023-01-20T18:52:45.733Z,12.15
2023-01-20T18:55:50.434Z,10.95
2023-01-20T18:58:56.063Z,9.20
2023-01-20T19:02:03.297Z,8.23
2023-01-20T19:05:07.690Z,10.67
2023-01-20T19:08:10.938Z,9.93
2023-01-20T19:11:29.827Z,10.05
2023-01-20T19:14:54.592Z,9.95
2023-01-20T19:18:16.562Z,9.35
2023-01-20T19:21:39.693Z,8.83
2023-01-20T19:25:02.683Z,10.43
2023-01-20T19:28:19.716Z,9.60
2023-01-20T19:31:43.801Z,10.45
2023-01-20T19:34:47.822Z,10.10
2023-01-20T19:37:57.424Z,10.17
2023-01-20T19:41:17.376Z,10.35
2023-01-20T19:44:20.815Z,11.38
2023-01-20T19:47:30.661Z,10.80
2023-01-20T19:50:36.939Z,10.35
2023-01-20T19:53:44.539Z,11.50
2023-01-20T19:57:01.772Z,11.98
2023-01-20T20:00:26.563Z,13.00
2023-01-20T20:03:29.964Z,12.57
2023-01-20T20:06:38.374Z,12.63
2023-01-20T20:09:42.561Z,13.53
2023-01-20T20:12:52.318Z,13.75
2023-01-20T20:16:06.137Z,14.43
2023-01-20T20:19:16.265Z,12.18
2023-01-20T20:22:23.539Z,14.90
2023-01-20T20:25:37.994Z,14.70
2023-01-20T20:28:58.526Z,13.98
2023-01-20T20:32:02.516Z,14.63
2023-01-20T20:35:07.392Z,13.48
2023-01-20T20:38:10.561Z,15.27
2023-01-20T20:41:35.464Z,13.10
2023-01-20T20:45:04.683Z,14.68
2023-01-20T20:48:14.018Z,13.88
2023-01-20T20:51:38.416Z,15.50
2023-01-20T20:55:15.396Z,14.45
2023-01-20T20:58:48.542Z,14.13
2023-01-20T21:02:01.387Z,14.73
2023-01-20T21:05:24.226Z,14.32
2023-01-20T21:08:45.264Z,13.73
2023-01-20T21:12:07.409Z,14.13
2023-01-20T21:15:24.258Z,13.27
2023-01-20T21:18:28.587Z,13.77
2023-01-20T21:21:33.272Z,13.88
2023-01-20T21:24:50.839Z,15.23
2023-01-20T21:27:57.903Z,13.85
2023-01-20T21:31:01.617Z,14.53
2023-01-20T21:34:06.969Z,14.73
2023-01-20T21:37:23.497Z,15.85
2023-01-20T21:40:45.575Z,15.70
2023-01-20T21:44:25.331Z,13.27
2023-01-20T21:47:34.000Z,15.17
2023-01-20T21:51:12.491Z,14.05
2023-01-20T21:54:16.424Z,13.50
2023-01-20T21:57:39.456Z,12.30
2023-01-20T22:01:03.390Z,14.25
2023-01-20T22:04:19.471Z,13.03
2023-01-20T22:07:44.360Z,14.32
2023-01-20T22:11:11.353Z,13.93
2023-01-20T22:14:34.301Z,14.70
2023-01-20T22:17:48.634Z,13.38
2023-01-20T22:21:09.440Z,15.27
2023-01-20T22:24:25.447Z,13.25
2023-01-20T22:27:48.199Z,13.05
2023-01-20T22:30:56.480Z,13.20
2023-01-20T22:34:06.620Z,12.98
2023-01-20T22:37:20.039Z,13.23
2023-01-20T22:40:41.929Z,13.07
2023-01-20T22:44:03.809Z,14.57
2023-01-20T22:47:25.799Z,13.63
2023-01-20T22:50:36.003Z,14.57
2023-01-20T22:53:59.049Z,14.37
2023-01-20T22:57:33.091Z,14.63
2023-01-20T23:00:57.889Z,15.30
2023-01-20T23:04:16.921Z,15.43
2023-01-20T23:07:38.941Z,15.88
2023-01-20T23:10:55.271Z,14.87
2023-01-20T23:14:13.787Z,14.25
2023-01-20T23:17:23.739Z,14.60
2023-01-20T23:20:26.914Z,14.05
2023-01-20T23:23:43.382Z,13.75
2023-01-20T23:26:53.399Z,15.00
2023-01-20T23:30:00.000Z,13.88
2023-01-20T23:33:08.299Z,13.57
2023-01-20T23:36:21.143Z,14.75
2023-01-20T23:39:24.676Z,13.27
2023-01-20T23:42:28.991Z,14.17
2023-01-20T23:45:38.970Z,14.05
2023-01-20T23:49:01.892Z,13.52
2023-01-20T23:52:37.955Z,14.90
2023-01-20T23:56:21.935Z,13.75
2023-01-20T23:59:45.920Z,13.13
